Zim Rio Grande — 9HNV9 — position and weather

sailwx.info

Track history (hours):
 
Tides and Currents Weather Stations Pressure Air Temp Water Temp Dewpoint Dewpoint Depression Visibility Wind Speed Wind Dir Waves Ship Positions

Zim Rio Grande

Last reported at 2014-Dec-19 17:29 UTC. Time now 2014-Dec-20 03:02 UTC.
Position N 43°18' E 007°18'.

Length 260 m; draft 11.2 m.

Type: Ship (hazmat cat A). MMSI: 249253000.

Date/timePositionNaut miles runAvg speedWind from/ knotsBaromVisibWave heightAir tempDewpointWater temp
2014-Dec-19 17:29N 43°18' E 007°18'1718.1
2014-Dec-19 16:33N 43°27' E 007°37'2018.2
2014-Dec-19 15:29N 43°40' E 007°58'2018.5
2014-Dec-19 14:24N 43°53' E 008°19'1518.0
2014-Dec-19 13:34N 44°04' E 008°33'1817.8
2014-Dec-19 12:33N 44°16' E 008°52'9 8.7
2014-Dec-19 11:33N 44°24' E 008°54'0 0.1
2014-Dec-19 10:31N 44°24' E 008°54'0 0.0
2014-Dec-19 09:31N 44°24' E 008°54'0 0.0
2014-Dec-19 08:31N 44°24' E 008°54'0 0.0
2014-Dec-19 07:31N 44°24' E 008°54'0 0.0
2014-Dec-19 06:31N 44°24' E 008°54'0 0.0
2014-Dec-19 05:28N 44°24' E 008°54'0 0.0
2014-Dec-19 04:31N 44°24' E 008°54'0 0.0
2014-Dec-19 03:31N 44°24' E 008°54'0 0.0
2014-Dec-19 02:31N 44°24' E 008°54'0 0.0
2014-Dec-19 01:31N 44°24' E 008°54'0 0.0
2014-Dec-19 00:31N 44°24' E 008°54'0 0.0
2014-Dec-18 23:31N 44°24' E 008°54'0 0.0
2014-Dec-18 22:28N 44°24' E 008°54'0 0.0
2014-Dec-18 21:31N 44°24' E 008°54'0 0.0
2014-Dec-18 20:31N 44°24' E 008°54'0 0.0
2014-Dec-18 19:31N 44°24' E 008°54'0 0.0
2014-Dec-18 18:31N 44°24' E 008°54'0 0.0
2014-Dec-18 17:25N 44°24' E 008°54'0 0.0
2014-Dec-18 16:31N 44°24' E 008°54'0 0.0
2014-Dec-18 15:31N 44°24' E 008°54'0 0.0
2014-Dec-18 14:31N 44°24' E 008°54'0 0.0
2014-Dec-18 13:32N 44°24' E 008°54'3 2.9
2014-Dec-18 12:33N 44°23' E 008°57'2 1.9
2014-Dec-18 11:33N 44°21' E 008°58'5 4.6
2014-Dec-18 10:33N 44°18' E 009°02'1616.1
2014-Dec-18 09:33N 44°05' E 009°17'1817.7
2014-Dec-18 08:33N 43°52' E 009°33'1817.9
2014-Dec-18 07:33N 43°38' E 009°48'1717.1
2014-Dec-18 06:33N 43°31' E 010°09'7 7.2
2014-Dec-18 05:33N 43°35' E 010°18'0 0.1
2014-Dec-18 04:32N 43°35' E 010°18'0 0.0
2014-Dec-18 03:32N 43°35' E 010°18'0 0.0
2014-Dec-18 02:32N 43°35' E 010°18'0 0.0
2014-Dec-18 01:32N 43°35' E 010°18'0 0.0
2014-Dec-18 00:32N 43°35' E 010°18'0 0.0
2014-Dec-17 23:29N 43°35' E 010°18'0 0.0
2014-Dec-17 22:32N 43°35' E 010°18'0 0.0
2014-Dec-17 21:32N 43°35' E 010°18'0 0.0
2014-Dec-17 20:32N 43°35' E 010°18'0 0.0
2014-Dec-17 19:32N 43°35' E 010°18'0 0.0
2014-Dec-17 18:32N 43°35' E 010°18'0 0.0
2014-Dec-17 17:32N 43°35' E 010°18'0 0.0
2014-Dec-17 16:29N 43°35' E 010°18'0 0.0
2014-Dec-17 15:32N 43°35' E 010°18'0 0.0
2014-Dec-17 14:32N 43°35' E 010°18'0 0.0
2014-Dec-17 13:32N 43°35' E 010°18'0 0.0
2014-Dec-17 12:32N 43°35' E 010°18'0 0.0
2014-Dec-17 11:32N 43°35' E 010°18'0 0.0
2014-Dec-17 10:32N 43°35' E 010°18'0 0.0
2014-Dec-17 09:32N 43°35' E 010°18'2 1.9
2014-Dec-17 08:33N 43°33' E 010°17'6 5.9
2014-Dec-17 07:33N 43°27' E 010°15'1 0.8
2014-Dec-17 06:33N 43°28' E 010°15'1 1.1
2014-Dec-17 05:33N 43°28' E 010°14'1 1.1
2014-Dec-17 04:33N 43°28' E 010°13'1313.0
2014-Dec-17 03:34N 43°15' E 010°07'1414.3
2014-Dec-17 02:33N 43°02' E 010°01'  
2014-Dec-14 18:25N 36°34' E 023°17'1414.9
2014-Dec-14 17:28N 36°48' E 023°20'4314.9
2014-Dec-14 14:33N 37°28' E 023°41'1414.4
2014-Dec-14 13:33N 37°43' E 023°40'1414.0
2014-Dec-14 12:33N 37°56' E 023°36'1 1.1
2014-Dec-14 11:31N 37°57' E 023°35'0 0.0
2014-Dec-14 10:31N 37°57' E 023°35'0 0.0
2014-Dec-14 09:31N 37°57' E 023°35'0 0.0
2014-Dec-14 08:31N 37°57' E 023°35'0 0.0
2014-Dec-14 07:31N 37°57' E 023°35'0 0.0
2014-Dec-14 06:31N 37°57' E 023°35'0 0.0
2014-Dec-14 05:31N 37°57' E 023°35'0 0.0
2014-Dec-14 04:31N 37°57' E 023°35'0 0.0
2014-Dec-14 03:31N 37°57' E 023°35'0 0.0
2014-Dec-14 02:31N 37°57' E 023°35'0 0.0
2014-Dec-14 01:31N 37°57' E 023°35'0 0.0
2014-Dec-14 00:31N 37°57' E 023°35'0 0.0
2014-Dec-13 23:31N 37°57' E 023°35'0 0.0
2014-Dec-13 22:31N 37°57' E 023°35'0 0.3
2014-Dec-13 21:33N 37°57' E 023°35'3 3.1
2014-Dec-13 20:33N 37°54' E 023°35'2 1.8
2014-Dec-13 19:33N 37°53' E 023°37'8 7.5
2014-Dec-13 18:33N 37°46' E 023°42'1514.9
2014-Dec-13 17:33N 37°33' E 023°49'3316.5
2014-Dec-13 15:32N 37°01' E 024°04'1616.4
2014-Dec-13 14:33N 36°46' E 024°11'1616.1
2014-Dec-13 13:33N 36°33' E 024°22'1616.3
2014-Dec-13 12:33N 36°24' E 024°39'1616.2
2014-Dec-13 11:33N 36°15' E 024°55'1616.2
2014-Dec-13 10:33N 36°06' E 025°12'1615.9
2014-Dec-13 09:33N 35°57' E 025°28'1616.0
2014-Dec-13 08:33N 35°48' E 025°45'1616.0
2014-Dec-13 07:33N 35°40' E 026°01'36615.9
2014-Dec-12 08:32N 33°25' E 032°55'8216.4
2014-Dec-12 03:33N 32°59' E 034°28'1616.5
2014-Dec-12 02:33N 32°56' E 034°47'5 0.2
2014-Dec-11 01:33N 32°53' E 034°52'1616.3
2014-Dec-11 00:33N 32°37' E 034°46'1616.5
2014-Dec-10 23:33N 32°21' E 034°40'1716.7
2014-Dec-10 22:33N 32°05' E 034°35'  
Track history (hours):
 
Tides and Currents Weather Stations Pressure Air Temp Water Temp Dewpoint Dewpoint Depression Visibility Wind Speed Wind Dir Waves Ship Positions

Zim Rio Grande

Last reported at 2014-Dec-19 17:29 UTC. Time now 2014-Dec-20 03:02 UTC.
Position N 43°18' E 007°18'.

Length 260 m; draft 11.2 m.

Type: Ship (hazmat cat A). MMSI: 249253000.

Date/timePositionNaut miles runAvg speedWind from/ knotsBaromVisibWave heightAir tempDewpointWater temp
2014-Dec-19 17:29N 43°18' E 007°18'1718.1
2014-Dec-19 16:33N 43°27' E 007°37'2018.2
2014-Dec-19 15:29N 43°40' E 007°58'2018.5
2014-Dec-19 14:24N 43°53' E 008°19'1518.0
2014-Dec-19 13:34N 44°04' E 008°33'1817.8
2014-Dec-19 12:33N 44°16' E 008°52'9 8.7
2014-Dec-19 11:33N 44°24' E 008°54'0 0.1
2014-Dec-19 10:31N 44°24' E 008°54'0 0.0
2014-Dec-19 09:31N 44°24' E 008°54'0 0.0
2014-Dec-19 08:31N 44°24' E 008°54'0 0.0
2014-Dec-19 07:31N 44°24' E 008°54'0 0.0
2014-Dec-19 06:31N 44°24' E 008°54'0 0.0
2014-Dec-19 05:28N 44°24' E 008°54'0 0.0
2014-Dec-19 04:31N 44°24' E 008°54'0 0.0
2014-Dec-19 03:31N 44°24' E 008°54'0 0.0
2014-Dec-19 02:31N 44°24' E 008°54'0 0.0
2014-Dec-19 01:31N 44°24' E 008°54'0 0.0
2014-Dec-19 00:31N 44°24' E 008°54'0 0.0
2014-Dec-18 23:31N 44°24' E 008°54'0 0.0
2014-Dec-18 22:28N 44°24' E 008°54'0 0.0
2014-Dec-18 21:31N 44°24' E 008°54'0 0.0
2014-Dec-18 20:31N 44°24' E 008°54'0 0.0
2014-Dec-18 19:31N 44°24' E 008°54'0 0.0
2014-Dec-18 18:31N 44°24' E 008°54'0 0.0
2014-Dec-18 17:25N 44°24' E 008°54'0 0.0
2014-Dec-18 16:31N 44°24' E 008°54'0 0.0
2014-Dec-18 15:31N 44°24' E 008°54'0 0.0
2014-Dec-18 14:31N 44°24' E 008°54'0 0.0
2014-Dec-18 13:32N 44°24' E 008°54'3 2.9
2014-Dec-18 12:33N 44°23' E 008°57'2 1.9
2014-Dec-18 11:33N 44°21' E 008°58'5 4.6
2014-Dec-18 10:33N 44°18' E 009°02'1616.1
2014-Dec-18 09:33N 44°05' E 009°17'1817.7
2014-Dec-18 08:33N 43°52' E 009°33'1817.9
2014-Dec-18 07:33N 43°38' E 009°48'1717.1
2014-Dec-18 06:33N 43°31' E 010°09'7 7.2
2014-Dec-18 05:33N 43°35' E 010°18'0 0.1
2014-Dec-18 04:32N 43°35' E 010°18'0 0.0
2014-Dec-18 03:32N 43°35' E 010°18'0 0.0
2014-Dec-18 02:32N 43°35' E 010°18'0 0.0
2014-Dec-18 01:32N 43°35' E 010°18'0 0.0
2014-Dec-18 00:32N 43°35' E 010°18'0 0.0
2014-Dec-17 23:29N 43°35' E 010°18'0 0.0
2014-Dec-17 22:32N 43°35' E 010°18'0 0.0
2014-Dec-17 21:32N 43°35' E 010°18'0 0.0
2014-Dec-17 20:32N 43°35' E 010°18'0 0.0
2014-Dec-17 19:32N 43°35' E 010°18'0 0.0
2014-Dec-17 18:32N 43°35' E 010°18'0 0.0
2014-Dec-17 17:32N 43°35' E 010°18'0 0.0
2014-Dec-17 16:29N 43°35' E 010°18'0 0.0
2014-Dec-17 15:32N 43°35' E 010°18'0 0.0
2014-Dec-17 14:32N 43°35' E 010°18'0 0.0
2014-Dec-17 13:32N 43°35' E 010°18'0 0.0
2014-Dec-17 12:32N 43°35' E 010°18'0 0.0
2014-Dec-17 11:32N 43°35' E 010°18'0 0.0
2014-Dec-17 10:32N 43°35' E 010°18'0 0.0
2014-Dec-17 09:32N 43°35' E 010°18'2 1.9
2014-Dec-17 08:33N 43°33' E 010°17'6 5.9
2014-Dec-17 07:33N 43°27' E 010°15'1 0.8
2014-Dec-17 06:33N 43°28' E 010°15'1 1.1
2014-Dec-17 05:33N 43°28' E 010°14'1 1.1
2014-Dec-17 04:33N 43°28' E 010°13'1313.0
2014-Dec-17 03:34N 43°15' E 010°07'1414.3
2014-Dec-17 02:33N 43°02' E 010°01'  
2014-Dec-14 18:25N 36°34' E 023°17'1414.9
2014-Dec-14 17:28N 36°48' E 023°20'4314.9
2014-Dec-14 14:33N 37°28' E 023°41'1414.4
2014-Dec-14 13:33N 37°43' E 023°40'1414.0
2014-Dec-14 12:33N 37°56' E 023°36'1 1.1
2014-Dec-14 11:31N 37°57' E 023°35'0 0.0
2014-Dec-14 10:31N 37°57' E 023°35'0 0.0
2014-Dec-14 09:31N 37°57' E 023°35'0 0.0
2014-Dec-14 08:31N 37°57' E 023°35'0 0.0
2014-Dec-14 07:31N 37°57' E 023°35'0 0.0
2014-Dec-14 06:31N 37°57' E 023°35'0 0.0
2014-Dec-14 05:31N 37°57' E 023°35'0 0.0
2014-Dec-14 04:31N 37°57' E 023°35'0 0.0
2014-Dec-14 03:31N 37°57' E 023°35'0 0.0
2014-Dec-14 02:31N 37°57' E 023°35'0 0.0
2014-Dec-14 01:31N 37°57' E 023°35'0 0.0
2014-Dec-14 00:31N 37°57' E 023°35'0 0.0
2014-Dec-13 23:31N 37°57' E 023°35'0 0.0
2014-Dec-13 22:31N 37°57' E 023°35'0 0.3
2014-Dec-13 21:33N 37°57' E 023°35'3 3.1
2014-Dec-13 20:33N 37°54' E 023°35'2 1.8
2014-Dec-13 19:33N 37°53' E 023°37'8 7.5
2014-Dec-13 18:33N 37°46' E 023°42'1514.9
2014-Dec-13 17:33N 37°33' E 023°49'3316.5
2014-Dec-13 15:32N 37°01' E 024°04'1616.4
2014-Dec-13 14:33N 36°46' E 024°11'1616.1
2014-Dec-13 13:33N 36°33' E 024°22'1616.3
2014-Dec-13 12:33N 36°24' E 024°39'1616.2
2014-Dec-13 11:33N 36°15' E 024°55'1616.2
2014-Dec-13 10:33N 36°06' E 025°12'1615.9
2014-Dec-13 09:33N 35°57' E 025°28'1616.0
2014-Dec-13 08:33N 35°48' E 025°45'1616.0
2014-Dec-13 07:33N 35°40' E 026°01'36615.9
2014-Dec-12 08:32N 33°25' E 032°55'8216.4
2014-Dec-12 03:33N 32°59' E 034°28'1616.5
2014-Dec-12 02:33N 32°56' E 034°47'5 0.2
2014-Dec-11 01:33N 32°53' E 034°52'1616.3
2014-Dec-11 00:33N 32°37' E 034°46'1616.5
2014-Dec-10 23:33N 32°21' E 034°40'1716.7
2014-Dec-10 22:33N 32°05' E 034°35'  

Dump ship's entire track history